createdAt,value
2023-04-24T00:00:46.277Z,7.60
2023-04-24T00:01:53.484Z,7.56
2023-04-24T00:02:58.494Z,7.55
2023-04-24T00:04:05.006Z,7.55
2023-04-24T00:05:07.727Z,7.52
2023-04-24T00:06:12.247Z,7.52
2023-04-24T00:07:14.312Z,7.50
2023-04-24T00:08:18.788Z,7.49
2023-04-24T00:09:20.642Z,7.50
2023-04-24T00:10:25.291Z,7.57
2023-04-24T00:11:27.173Z,7.63
2023-04-24T00:12:31.580Z,7.66
2023-04-24T00:13:33.430Z,7.68
2023-04-24T00:14:38.433Z,7.67
2023-04-24T00:15:40.325Z,7.69
2023-04-24T00:16:44.809Z,7.77
2023-04-24T00:17:49.357Z,7.78
2023-04-24T00:18:53.904Z,7.79
2023-04-24T00:19:59.634Z,7.81
2023-04-24T00:21:04.142Z,7.96
2023-04-24T00:22:06.497Z,8.02
2023-04-24T00:23:10.921Z,8.04
2023-04-24T00:24:12.790Z,8.04
2023-04-24T00:25:17.331Z,8.07
2023-04-24T00:26:19.254Z,8.07
2023-04-24T00:27:23.774Z,8.07
2023-04-24T00:28:25.681Z,8.06
2023-04-24T00:29:30.432Z,8.06
2023-04-24T00:30:32.329Z,8.05
2023-04-24T00:31:37.197Z,8.07
2023-04-24T00:32:39.072Z,8.06
2023-04-24T00:33:46.160Z,8.08
2023-04-24T00:34:48.002Z,8.11
2023-04-24T00:35:52.432Z,8.10
2023-04-24T00:36:54.270Z,8.14
2023-04-24T00:37:58.761Z,8.15
2023-04-24T00:39:00.786Z,8.20
2023-04-24T00:40:05.398Z,8.24
2023-04-24T00:41:07.443Z,8.24
2023-04-24T00:42:12.105Z,8.20
2023-04-24T00:43:14.074Z,8.17
2023-04-24T00:44:18.530Z,8.17
2023-04-24T00:45:20.787Z,8.13
2023-04-24T00:46:25.933Z,8.14
2023-04-24T00:47:28.130Z,8.14
2023-04-24T00:48:32.834Z,8.13
2023-04-24T00:49:37.360Z,8.19
2023-04-24T00:50:42.061Z,8.18
2023-04-24T00:51:46.750Z,8.19
2023-04-24T00:52:51.951Z,8.21
2023-04-24T00:53:53.917Z,8.22
2023-04-24T00:54:58.585Z,8.28
2023-04-24T00:56:01.379Z,8.28
2023-04-24T00:57:06.365Z,8.28
2023-04-24T00:58:08.286Z,8.26
2023-04-24T00:59:13.092Z,8.30
2023-04-24T01:00:16.022Z,8.35
2023-04-24T01:01:22.205Z,8.32
2023-04-24T01:02:24.354Z,8.29
2023-04-24T01:03:31.291Z,8.32
2023-04-24T01:04:36.077Z,8.33
2023-04-24T01:05:40.866Z,8.30
2023-04-24T01:06:46.614Z,8.28
2023-04-24T01:07:50.227Z,8.32
2023-04-24T01:08:54.697Z,8.25
2023-04-24T01:09:56.626Z,8.23
2023-04-24T01:11:01.302Z,8.22
2023-04-24T01:12:03.222Z,8.20
2023-04-24T01:13:07.922Z,8.20
2023-04-24T01:14:10.201Z,8.20
2023-04-24T01:15:14.669Z,8.19
2023-04-24T01:16:16.546Z,8.21
2023-04-24T01:17:21.822Z,8.21
2023-04-24T01:18:23.736Z,8.17
2023-04-24T01:19:28.524Z,8.13
2023-04-24T01:20:31.436Z,8.13
2023-04-24T01:21:39.869Z,8.17
2023-04-24T01:22:44.302Z,8.17
2023-04-24T01:23:49.140Z,8.15
2023-04-24T01:24:51.069Z,8.13
2023-04-24T01:25:55.865Z,8.21
2023-04-24T01:26:58.082Z,8.22
2023-04-24T01:28:02.765Z,8.21
2023-04-24T01:29:04.751Z,8.16
2023-04-24T01:30:10.295Z,8.11
2023-04-24T01:31:12.444Z,8.10
2023-04-24T01:32:17.010Z,8.11
2023-04-24T01:33:19.001Z,8.12
2023-04-24T01:34:23.456Z,8.14
2023-04-24T01:35:26.160Z,8.15
2023-04-24T01:36:31.371Z,8.21
2023-04-24T01:37:33.690Z,8.30
2023-04-24T01:38:40.727Z,8.33
2023-04-24T01:39:42.836Z,8.36
2023-04-24T01:40:47.512Z,8.39
2023-04-24T01:41:50.853Z,8.35
2023-04-24T01:42:55.363Z,8.33
2023-04-24T01:43:58.172Z,8.29
2023-04-24T01:45:03.021Z,8.31
2023-04-24T01:46:04.933Z,8.34
2023-04-24T01:47:09.670Z,8.33
2023-04-24T01:48:12.372Z,8.32
2023-04-24T01:49:16.831Z,8.35
2023-04-24T01:50:18.817Z,8.33
2023-04-24T01:51:23.935Z,8.32
2023-04-24T01:52:25.996Z,8.31
2023-04-24T01:53:30.447Z,8.37
2023-04-24T01:54:35.102Z,8.29
2023-04-24T01:55:39.788Z,8.31
2023-04-24T01:56:43.014Z,8.22
2023-04-24T01:57:47.444Z,8.20
2023-04-24T01:58:50.150Z,8.23
2023-04-24T01:59:54.685Z,8.19
2023-04-24T02:00:57.987Z,8.14
2023-04-24T02:02:12.814Z,8.16
2023-04-24T02:03:14.907Z,8.16
2023-04-24T02:04:19.551Z,8.11
2023-04-24T02:05:21.685Z,8.11
2023-04-24T02:06:38.655Z,8.07
2023-04-24T02:07:43.140Z,8.06
2023-04-24T02:08:44.984Z,8.04
2023-04-24T02:09:52.072Z,8.04
2023-04-24T02:10:53.942Z,8.03
2023-04-24T02:11:58.551Z,8.05
2023-04-24T02:13:00.919Z,8.10
2023-04-24T02:14:05.317Z,8.10
2023-04-24T02:15:08.050Z,8.11
2023-04-24T02:16:12.525Z,8.07
2023-04-24T02:17:16.703Z,8.10
2023-04-24T02:18:21.127Z,8.08
2023-04-24T02:19:22.974Z,8.10
2023-04-24T02:20:27.683Z,8.10
2023-04-24T02:21:29.595Z,8.14
2023-04-24T02:22:34.044Z,8.21
2023-04-24T02:23:35.995Z,8.21
2023-04-24T02:24:40.728Z,8.18
2023-04-24T02:25:45.193Z,8.14
2023-04-24T02:26:49.738Z,8.07
2023-04-24T02:27:51.532Z,8.07
2023-04-24T02:28:56.053Z,8.05
2023-04-24T02:29:57.947Z,8.09
2023-04-24T02:31:02.852Z,8.12
2023-04-24T02:32:04.816Z,8.12
2023-04-24T02:33:09.403Z,8.11
2023-04-24T02:34:11.595Z,8.09
2023-04-24T02:35:16.537Z,8.08
2023-04-24T02:36:18.516Z,8.03
2023-04-24T02:37:23.045Z,7.97
2023-04-24T02:38:24.902Z,7.94
2023-04-24T02:39:29.316Z,7.88
2023-04-24T02:40:31.392Z,7.84
2023-04-24T02:41:38.616Z,7.79
2023-04-24T02:42:40.501Z,7.76
2023-04-24T02:43:45.122Z,7.72
2023-04-24T02:44:46.992Z,7.70
2023-04-24T02:45:51.648Z,7.71
2023-04-24T02:46:53.548Z,7.67
2023-04-24T02:47:58.194Z,7.63
2023-04-24T02:49:00.406Z,7.69
2023-04-24T02:50:05.860Z,7.68
2023-04-24T02:51:07.951Z,7.67
2023-04-24T02:52:12.401Z,7.63
2023-04-24T02:53:14.839Z,7.58
2023-04-24T02:54:19.309Z,7.55
2023-04-24T02:55:21.284Z,7.52
2023-04-24T02:56:25.753Z,7.55
2023-04-24T02:57:32.811Z,7.54
2023-04-24T02:58:34.960Z,7.53
2023-04-24T02:59:39.398Z,7.53
2023-04-24T03:00:41.314Z,7.52
2023-04-24T03:01:45.864Z,7.54
2023-04-24T03:02:47.964Z,7.55
2023-04-24T03:03:52.891Z,7.57
2023-04-24T03:04:54.966Z,7.58
2023-04-24T03:05:59.728Z,7.58
2023-04-24T03:07:02.397Z,7.55
2023-04-24T03:08:07.445Z,7.57
2023-04-24T03:09:09.474Z,7.60
2023-04-24T03:10:14.094Z,7.61
2023-04-24T03:11:15.927Z,7.58
2023-04-24T03:12:20.687Z,7.64
2023-04-24T03:13:28.160Z,7.61
2023-04-24T03:14:32.442Z,7.58
2023-04-24T03:15:36.871Z,7.55
2023-04-24T03:16:39.712Z,7.52
2023-04-24T03:17:44.279Z,7.60
2023-04-24T03:18:47.505Z,7.58
2023-04-24T03:19:51.933Z,7.61
2023-04-24T03:20:53.859Z,7.61
2023-04-24T03:21:58.326Z,7.68
2023-04-24T03:23:00.166Z,7.67
2023-04-24T03:24:04.892Z,7.73
2023-04-24T03:25:07.314Z,7.77
2023-04-24T03:26:11.898Z,7.78
2023-04-24T03:27:13.793Z,7.79
2023-04-24T03:28:18.222Z,7.80
2023-04-24T03:29:22.780Z,7.81
2023-04-24T03:30:27.529Z,7.82
2023-04-24T03:31:29.422Z,7.81
2023-04-24T03:32:34.051Z,7.81
2023-04-24T03:33:37.119Z,7.83
2023-04-24T03:34:42.591Z,7.83
2023-04-24T03:35:44.611Z,7.85
2023-04-24T03:36:49.476Z,7.83
2023-04-24T03:37:51.365Z,7.82
2023-04-24T03:38:55.872Z,7.78
2023-04-24T03:39:57.745Z,7.77
2023-04-24T03:41:03.177Z,7.73
2023-04-24T03:42:05.496Z,7.73
2023-04-24T03:43:09.970Z,7.70
2023-04-24T03:44:11.978Z,7.67
2023-04-24T03:45:19.055Z,7.68
2023-04-24T03:46:21.089Z,7.58
2023-04-24T03:47:26.239Z,7.57
2023-04-24T03:48:28.179Z,7.58
2023-04-24T03:49:32.663Z,7.55
2023-04-24T03:50:34.554Z,7.51
2023-04-24T03:51:39.022Z,7.54
2023-04-24T03:52:41.251Z,7.53
2023-04-24T03:53:45.695Z,7.49
2023-04-24T03:54:47.567Z,7.48
2023-04-24T03:55:52.088Z,7.46
2023-04-24T03:56:54.007Z,7.46
2023-04-24T03:57:58.768Z,7.47
2023-04-24T03:59:00.704Z,7.51
2023-04-24T04:00:07.569Z,7.52
2023-04-24T04:01:13.658Z,7.47
2023-04-24T04:02:18.256Z,7.46
2023-04-24T04:03:20.509Z,7.44
2023-04-24T04:04:25.366Z,7.47
2023-04-24T04:05:27.420Z,7.46
2023-04-24T04:06:31.978Z,7.47
2023-04-24T04:07:33.819Z,7.44
2023-04-24T04:08:38.260Z,7.49
2023-04-24T04:09:40.251Z,7.48
2023-04-24T04:10:44.753Z,7.49
2023-04-24T04:11:46.987Z,7.45
2023-04-24T04:12:51.464Z,7.45
2023-04-24T04:13:53.352Z,7.43
2023-04-24T04:14:57.849Z,7.43
2023-04-24T04:15:59.762Z,7.48
2023-04-24T04:17:06.866Z,7.48
2023-04-24T04:18:10.017Z,7.48
2023-04-24T04:19:14.516Z,7.48
2023-04-24T04:20:16.525Z,7.50
2023-04-24T04:21:21.020Z,7.53
2023-04-24T04:22:22.897Z,7.51
2023-04-24T04:23:27.616Z,7.49
2023-04-24T04:24:29.816Z,7.53
2023-04-24T04:25:34.422Z,7.55
2023-04-24T04:26:36.622Z,7.52
2023-04-24T04:27:42.757Z,7.47
2023-04-24T04:28:45.724Z,7.43
2023-04-24T04:29:50.187Z,7.37
2023-04-24T04:30:54.898Z,7.35
2023-04-24T04:32:05.967Z,7.32
2023-04-24T04:33:11.917Z,7.27
2023-04-24T04:34:16.591Z,7.21
2023-04-24T04:35:18.580Z,7.15
2023-04-24T04:36:23.475Z,7.16
2023-04-24T04:37:26.526Z,7.14
2023-04-24T04:38:31.117Z,7.16
2023-04-24T04:39:33.024Z,7.16
2023-04-24T04:40:37.906Z,7.16
2023-04-24T04:41:42.015Z,7.17
2023-04-24T04:42:47.251Z,7.18
2023-04-24T04:43:49.343Z,7.18
2023-04-24T04:44:54.136Z,7.20
2023-04-24T04:45:57.221Z,7.23
2023-04-24T04:47:01.802Z,7.29
2023-04-24T04:48:04.680Z,7.31
2023-04-24T04:49:12.125Z,7.33
2023-04-24T04:50:13.973Z,7.35
2023-04-24T04:51:18.387Z,7.38
2023-04-24T04:52:20.299Z,7.44
2023-04-24T04:53:24.729Z,7.44
2023-04-24T04:54:26.683Z,7.48
2023-04-24T04:55:31.332Z,7.47
2023-04-24T04:56:33.196Z,7.47
2023-04-24T04:57:37.665Z,7.51
2023-04-24T04:58:39.493Z,7.53
2023-04-24T04:59:44.359Z,7.53
2023-04-24T05:00:46.462Z,7.56
2023-04-24T05:01:50.966Z,7.56
2023-04-24T05:02:53.194Z,7.58
2023-04-24T05:03:58.349Z,7.60
2023-04-24T05:05:03.485Z,7.65
2023-04-24T05:06:08.486Z,7.58
2023-04-24T05:07:10.441Z,7.62
2023-04-24T05:09:19.684Z,7.56
2023-04-24T05:10:24.140Z,7.53
2023-04-24T05:11:26.153Z,7.48
2023-04-24T05:12:30.767Z,7.44
2023-04-24T05:13:40.444Z,7.43
2023-04-24T05:14:45.618Z,7.44
2023-04-24T05:15:47.762Z,7.42
2023-04-24T05:16:52.691Z,7.44
2023-04-24T05:17:56.830Z,7.42
2023-04-24T05:19:02.388Z,7.38
2023-04-24T05:20:08.179Z,7.37
2023-04-24T05:21:12.660Z,7.34
2023-04-24T05:22:14.864Z,7.29
2023-04-24T05:23:19.381Z,7.28
2023-04-24T05:24:21.358Z,7.32
2023-04-24T05:25:26.056Z,7.33
2023-04-24T05:26:28.340Z,7.34
2023-04-24T05:27:32.909Z,7.38
2023-04-24T05:28:35.003Z,7.44
2023-04-24T05:29:39.459Z,7.42
2023-04-24T05:30:41.908Z,7.45
2023-04-24T05:31:46.495Z,7.46
2023-04-24T05:32:48.492Z,7.47
2023-04-24T05:33:53.014Z,7.46
2023-04-24T05:34:54.917Z,7.45
2023-04-24T05:36:01.958Z,7.51
2023-04-24T05:37:04.540Z,7.51
2023-04-24T05:38:08.980Z,7.45
2023-04-24T05:39:10.906Z,7.48
2023-04-24T05:40:15.388Z,7.46
2023-04-24T05:41:17.216Z,7.48
2023-04-24T05:42:31.092Z,7.49
2023-04-24T05:43:33.068Z,7.47
2023-04-24T05:44:37.517Z,7.45
2023-04-24T05:45:39.421Z,7.47
2023-04-24T05:46:43.896Z,7.42
2023-04-24T05:47:46.470Z,7.44
2023-04-24T05:48:51.106Z,7.46
2023-04-24T05:49:55.820Z,7.49
2023-04-24T05:51:00.311Z,7.51
2023-04-24T05:52:05.414Z,7.51
2023-04-24T05:53:11.832Z,7.53
2023-04-24T05:54:13.727Z,7.56
2023-04-24T05:55:18.567Z,7.58
2023-04-24T05:56:20.569Z,7.57
2023-04-24T05:57:25.043Z,7.57
2023-04-24T05:58:27.019Z,7.57
2023-04-24T05:59:31.840Z,7.50
2023-04-24T06:00:34.315Z,7.56
2023-04-24T06:01:39.296Z,7.51
2023-04-24T06:02:41.522Z,7.51
2023-04-24T06:03:46.531Z,7.39
2023-04-24T06:04:51.256Z,7.52
2023-04-24T06:05:53.152Z,7.47
2023-04-24T06:07:00.307Z,7.51
2023-04-24T06:08:02.179Z,7.54
2023-04-24T06:09:07.200Z,7.54
2023-04-24T06:10:09.676Z,7.60
2023-04-24T06:11:14.104Z,7.62
2023-04-24T06:12:15.998Z,7.65
2023-04-24T06:13:20.882Z,7.71
2023-04-24T06:14:22.862Z,7.77
2023-04-24T06:15:27.917Z,7.75
2023-04-24T06:16:33.686Z,7.77
2023-04-24T06:17:35.690Z,7.70
2023-04-24T06:18:40.744Z,7.78
2023-04-24T06:19:42.881Z,7.69
2023-04-24T06:20:47.554Z,7.68
2023-04-24T06:21:49.436Z,7.65
2023-04-24T06:22:56.560Z,7.64
2023-04-24T06:23:59.253Z,7.72
2023-04-24T06:25:03.728Z,7.75
2023-04-24T06:26:05.749Z,7.82
2023-04-24T06:27:10.383Z,7.80
2023-04-24T06:28:12.191Z,7.87
2023-04-24T06:29:16.622Z,7.90
2023-04-24T06:30:18.689Z,7.91
2023-04-24T06:31:23.390Z,7.93
2023-04-24T06:32:29.446Z,8.06
2023-04-24T06:33:34.063Z,8.14
2023-04-24T06:34:36.730Z,8.10
2023-04-24T06:35:41.751Z,8.18
2023-04-24T06:36:43.613Z,8.19
2023-04-24T06:37:48.215Z,8.19
2023-04-24T06:38:52.668Z,8.15
2023-04-24T06:39:57.222Z,8.06
2023-04-24T06:40:59.222Z,8.17
2023-04-24T06:42:03.678Z,8.13
2023-04-24T06:43:05.517Z,8.16
2023-04-24T06:44:09.916Z,8.11
2023-04-24T06:45:12.422Z,8.15
2023-04-24T06:46:17.401Z,8.14
2023-04-24T06:47:19.842Z,8.16
2023-04-24T06:48:24.567Z,8.17
2023-04-24T06:49:26.561Z,8.00
2023-04-24T06:50:31.310Z,8.14
2023-04-24T06:51:34.234Z,8.20
2023-04-24T06:52:45.424Z,8.07
2023-04-24T06:53:51.447Z,8.10
2023-04-24T06:55:00.963Z,7.86
2023-04-24T06:56:05.875Z,7.86
2023-04-24T06:57:11.527Z,7.83
2023-04-24T06:58:16.283Z,7.89
2023-04-24T06:59:18.128Z,7.88
2023-04-24T07:00:23.231Z,7.95
2023-04-24T07:01:27.718Z,7.79
2023-04-24T07:02:29.741Z,7.83
2023-04-24T07:03:34.773Z,7.87
2023-04-24T07:04:36.887Z,7.84
2023-04-24T07:05:41.616Z,7.79
2023-04-24T07:06:43.690Z,7.77
2023-04-24T07:07:48.132Z,7.72
2023-04-24T07:08:50.374Z,7.84
2023-04-24T07:09:55.373Z,7.90
2023-04-24T07:11:02.538Z,8.00
2023-04-24T07:12:04.664Z,8.11
2023-04-24T07:13:09.766Z,8.13
2023-04-24T07:14:11.601Z,8.06
2023-04-24T07:15:16.059Z,8.15
2023-04-24T07:16:20.531Z,8.23
2023-04-24T07:17:22.504Z,8.28
2023-04-24T07:18:27.003Z,8.30
2023-04-24T07:19:28.926Z,8.33
2023-04-24T07:20:34.708Z,8.48
2023-04-24T07:21:36.651Z,8.43
2023-04-24T07:22:41.747Z,8.63
2023-04-24T07:23:46.373Z,8.91
2023-04-24T07:24:50.925Z,9.04
2023-04-24T07:25:55.921Z,9.23
2023-04-24T07:27:00.640Z,9.34
2023-04-24T07:28:05.841Z,9.47
2023-04-24T07:29:10.397Z,9.40
2023-04-24T07:30:12.915Z,9.44
2023-04-24T07:31:17.493Z,9.52
2023-04-24T07:32:19.337Z,9.37
2023-04-24T07:33:23.992Z,9.46
2023-04-24T07:34:28.451Z,9.56
2023-04-24T07:35:30.359Z,9.44
2023-04-24T07:36:34.869Z,9.09
2023-04-24T07:37:36.762Z,9.27
2023-04-24T07:38:41.678Z,9.32
2023-04-24T07:39:46.510Z,9.46
2023-04-24T07:40:51.188Z,9.60
2023-04-24T07:41:58.003Z,9.72
2023-04-24T07:43:02.490Z,9.81
2023-04-24T07:44:07.042Z,10.02
2023-04-24T07:45:11.686Z,10.00
2023-04-24T07:46:13.586Z,10.18
2023-04-24T07:47:18.667Z,10.18
2023-04-24T07:48:23.471Z,10.10
2023-04-24T07:49:25.414Z,10.06
2023-04-24T07:50:30.066Z,9.76
2023-04-24T07:51:32.121Z,9.77
2023-04-24T07:52:36.881Z,9.66
2023-04-24T07:53:42.558Z,9.93
2023-04-24T07:54:47.033Z,10.01
2023-04-24T07:55:48.939Z,10.20
2023-04-24T07:56:53.702Z,10.29
2023-04-24T07:57:58.162Z,10.33
2023-04-24T07:59:02.660Z,10.05
2023-04-24T08:00:07.629Z,10.11
2023-04-24T08:01:09.649Z,9.88
2023-04-24T08:02:14.095Z,9.91
2023-04-24T08:03:16.212Z,9.82
2023-04-24T08:04:29.341Z,9.41
2023-04-24T08:05:34.144Z,9.44
2023-04-24T08:07:58.964Z,9.24
2023-04-24T08:09:00.914Z,9.08
2023-04-24T08:10:05.587Z,9.01
2023-04-24T08:11:10.005Z,8.95
2023-04-24T08:12:11.879Z,9.01
2023-04-24T08:13:16.442Z,8.81
2023-04-24T08:14:23.469Z,8.53
2023-04-24T08:15:26.078Z,8.57
2023-04-24T08:16:30.703Z,8.64
2023-04-24T08:17:32.692Z,8.64
2023-04-24T08:18:37.171Z,8.69
2023-04-24T08:19:39.094Z,8.69
2023-04-24T08:20:43.552Z,8.73
2023-04-24T08:21:45.441Z,8.84
2023-04-24T08:22:50.513Z,8.87
2023-04-24T08:23:52.385Z,8.81
2023-04-24T08:24:57.262Z,8.84
2023-04-24T08:26:01.818Z,8.87
2023-04-24T08:27:03.989Z,8.91
2023-04-24T08:28:09.565Z,9.08
2023-04-24T08:29:11.457Z,9.13
2023-04-24T08:30:18.892Z,9.23
2023-04-24T08:31:24.029Z,9.33
2023-04-24T08:32:30.007Z,9.38
2023-04-24T08:33:36.005Z,9.48
2023-04-24T08:34:37.995Z,9.23
2023-04-24T08:35:42.754Z,9.30
2023-04-24T08:36:47.846Z,9.36
2023-04-24T08:37:49.999Z,9.33
2023-04-24T08:38:54.403Z,9.45
2023-04-24T08:39:56.422Z,9.34
2023-04-24T08:41:02.591Z,9.40
2023-04-24T08:42:09.146Z,9.34
2023-04-24T08:43:14.639Z,9.40
2023-04-24T08:44:17.375Z,9.45
2023-04-24T08:45:24.913Z,9.26
2023-04-24T08:46:27.273Z,9.42
2023-04-24T08:47:32.884Z,9.30
2023-04-24T08:48:34.830Z,9.40
2023-04-24T08:49:40.325Z,9.42
2023-04-24T08:50:44.088Z,9.33
2023-04-24T08:51:49.216Z,9.34
2023-04-24T08:52:54.493Z,9.39
2023-04-24T08:53:59.026Z,9.18
2023-04-24T08:55:01.324Z,9.25
2023-04-24T08:56:06.743Z,9.40
2023-04-24T08:57:09.193Z,9.48
2023-04-24T08:58:14.129Z,9.61
2023-04-24T08:59:18.808Z,9.77
2023-04-24T09:00:23.777Z,9.93
2023-04-24T09:01:30.062Z,9.90
2023-04-24T09:02:33.438Z,10.07
2023-04-24T09:03:38.785Z,9.79
2023-04-24T09:04:42.226Z,9.59
2023-04-24T09:05:48.650Z,9.69
2023-04-24T09:06:53.362Z,9.73
2023-04-24T09:07:59.412Z,9.83
2023-04-24T09:09:02.097Z,9.97
2023-04-24T09:10:06.905Z,10.03
2023-04-24T09:11:11.858Z,10.13
2023-04-24T09:12:13.961Z,10.19
2023-04-24T09:13:18.524Z,10.32
2023-04-24T09:14:24.323Z,10.54
2023-04-24T09:15:31.792Z,10.66
2023-04-24T09:16:36.883Z,10.94
2023-04-24T09:17:39.317Z,11.35
2023-04-24T09:20:21.347Z,12.03
2023-04-24T09:21:27.804Z,12.22
2023-04-24T09:22:31.059Z,11.94
2023-04-24T09:23:36.206Z,11.63
2023-04-24T09:24:38.145Z,11.47
2023-04-24T09:25:42.922Z,10.88
2023-04-24T09:26:45.408Z,10.84
2023-04-24T09:27:49.857Z,11.13
2023-04-24T09:28:51.800Z,10.70
2023-04-24T09:29:59.410Z,10.11
2023-04-24T09:31:14.206Z,10.00
2023-04-24T09:32:26.992Z,10.19
2023-04-24T09:33:28.980Z,10.16
2023-04-24T09:34:33.429Z,10.16
2023-04-24T09:35:35.433Z,10.08
2023-04-24T09:36:41.973Z,9.96
2023-04-24T09:37:46.353Z,10.06
2023-04-24T09:38:50.853Z,10.09
2023-04-24T09:40:11.328Z,10.19
2023-04-24T09:41:17.905Z,10.08
2023-04-24T09:42:20.618Z,10.14
2023-04-24T09:43:25.167Z,9.98
2023-04-24T09:44:30.670Z,9.94
2023-04-24T09:45:36.964Z,9.79
2023-04-24T09:46:45.184Z,9.60
2023-04-24T09:47:50.114Z,9.71
2023-04-24T09:48:52.036Z,9.97
2023-04-24T09:50:02.062Z,10.16
2023-04-24T09:51:11.750Z,10.34
2023-04-24T09:52:16.363Z,10.46
2023-04-24T09:53:24.948Z,10.38
2023-04-24T09:54:30.862Z,10.48
2023-04-24T09:55:33.249Z,10.45
2023-04-24T09:56:38.067Z,10.42
2023-04-24T09:57:48.085Z,10.42
2023-04-24T09:58:52.585Z,10.44
2023-04-24T09:59:54.657Z,10.27
2023-04-24T10:00:59.400Z,10.07
2023-04-24T10:02:04.370Z,9.57
2023-04-24T10:03:30.921Z,9.55
2023-04-24T10:04:35.469Z,9.45
2023-04-24T10:05:42.471Z,9.43
2023-04-24T10:06:44.464Z,9.14
2023-04-24T10:07:50.176Z,9.11
2023-04-24T10:08:55.526Z,8.98
2023-04-24T10:09:57.581Z,9.05
2023-04-24T10:11:02.462Z,8.62
2023-04-24T10:12:04.506Z,8.59
2023-04-24T10:13:08.973Z,8.65
2023-04-24T10:14:12.253Z,8.82
2023-04-24T10:15:18.849Z,9.06
2023-04-24T10:16:23.745Z,9.11
2023-04-24T10:17:32.062Z,8.76
2023-04-24T10:18:34.930Z,8.91
2023-04-24T10:19:39.628Z,9.18
2023-04-24T10:20:41.736Z,9.10
2023-04-24T10:21:47.724Z,9.29
2023-04-24T10:22:51.237Z,9.21
2023-04-24T10:23:56.540Z,9.30
2023-04-24T10:24:58.515Z,9.35
2023-04-24T10:26:04.137Z,9.26
2023-04-24T10:27:07.214Z,9.37
2023-04-24T10:28:12.842Z,9.51
2023-04-24T10:29:23.660Z,9.84
2023-04-24T10:30:28.276Z,10.09
2023-04-24T10:33:06.070Z,9.91
2023-04-24T10:34:11.003Z,10.19
2023-04-24T10:35:13.973Z,10.28
2023-04-24T10:36:19.698Z,10.51
2023-04-24T10:37:22.020Z,10.68
2023-04-24T10:38:28.114Z,10.32
2023-04-24T10:39:31.972Z,10.12
2023-04-24T10:40:37.600Z,10.01
2023-04-24T10:41:39.730Z,9.98
2023-04-24T10:42:45.035Z,9.79
2023-04-24T10:43:52.061Z,9.48
2023-04-24T10:44:55.052Z,9.63
2023-04-24T10:46:06.419Z,9.86
2023-04-24T10:47:13.918Z,9.99
2023-04-24T10:48:21.189Z,10.03
2023-04-24T10:49:32.051Z,10.07
2023-04-24T10:50:43.850Z,10.16
2023-04-24T10:51:49.273Z,10.34
2023-04-24T10:52:52.461Z,10.60
2023-04-24T10:53:57.027Z,10.28
2023-04-24T10:55:05.477Z,10.42
2023-04-24T10:56:11.301Z,10.54
2023-04-24T10:57:32.625Z,10.61
2023-04-24T10:58:39.506Z,10.35
2023-04-24T10:59:44.211Z,10.30
2023-04-24T11:00:58.985Z,10.32
2023-04-24T11:02:03.665Z,10.45
2023-04-24T11:03:06.173Z,10.85
2023-04-24T11:04:14.305Z,11.19
2023-04-24T11:05:16.952Z,11.13
2023-04-24T11:06:32.754Z,11.12
2023-04-24T11:08:18.544Z,10.84
2023-04-24T11:09:25.918Z,10.84
2023-04-24T11:10:27.863Z,10.98
2023-04-24T11:11:32.584Z,10.75
2023-04-24T11:12:36.237Z,10.36
2023-04-24T11:13:55.804Z,10.29
2023-04-24T11:15:04.615Z,10.28
2023-04-24T11:16:17.081Z,10.09
2023-04-24T11:17:31.154Z,9.92
2023-04-24T11:18:38.389Z,10.10
2023-04-24T11:19:43.322Z,10.19
2023-04-24T11:22:05.047Z,9.94
2023-04-24T11:23:07.880Z,9.55
2023-04-24T11:24:34.652Z,9.70
2023-04-24T11:25:37.134Z,9.71
2023-04-24T11:26:43.565Z,9.47
2023-04-24T11:27:49.855Z,9.40
2023-04-24T11:28:52.030Z,9.07
2023-04-24T11:30:04.558Z,9.19
2023-04-24T11:31:21.560Z,9.11
2023-04-24T11:32:30.108Z,9.15
2023-04-24T11:33:32.694Z,9.24
2023-04-24T11:34:37.103Z,9.14
2023-04-24T11:35:43.838Z,9.26
2023-04-24T11:36:46.531Z,9.66
2023-04-24T11:38:57.941Z,10.08
2023-04-24T11:40:05.290Z,10.17
2023-04-24T11:41:10.232Z,10.49
2023-04-24T11:43:52.870Z,10.66
2023-04-24T11:44:58.356Z,10.66
2023-04-24T11:46:04.020Z,10.46
2023-04-24T11:47:10.001Z,10.47
2023-04-24T11:48:14.442Z,10.71
2023-04-24T11:49:16.349Z,10.46
2023-04-24T11:50:21.570Z,11.07
2023-04-24T11:51:23.626Z,11.55
2023-04-24T11:52:28.140Z,12.02
2023-04-24T11:53:31.921Z,12.31
2023-04-24T11:54:36.421Z,11.65
2023-04-24T11:55:43.522Z,11.36
2023-04-24T11:56:46.152Z,11.87
2023-04-24T11:57:51.646Z,11.98
2023-04-24T11:58:54.566Z,11.69
2023-04-24T11:59:59.132Z,11.95
2023-04-24T12:01:02.398Z,12.21
2023-04-24T12:02:07.410Z,11.30
2023-04-24T12:03:13.074Z,11.25
2023-04-24T12:04:18.374Z,10.97
2023-04-24T12:05:23.677Z,11.22
2023-04-24T12:06:28.470Z,11.00
2023-04-24T12:07:32.926Z,10.85
2023-04-24T12:08:36.560Z,10.41
2023-04-24T12:09:47.632Z,10.44
2023-04-24T12:10:55.290Z,10.62
2023-04-24T12:12:00.835Z,10.43
2023-04-24T12:13:05.539Z,10.61
2023-04-24T12:14:18.874Z,10.83
2023-04-24T12:15:24.260Z,10.86
2023-04-24T12:16:32.173Z,11.14
2023-04-24T12:17:34.591Z,11.31
2023-04-24T12:18:39.080Z,11.08
2023-04-24T12:19:46.510Z,11.14
2023-04-24T12:20:50.934Z,10.84
2023-04-24T12:22:01.838Z,11.08
2023-04-24T12:23:06.231Z,10.71
2023-04-24T12:24:08.196Z,11.00
2023-04-24T12:25:14.335Z,10.83
2023-04-24T12:26:25.755Z,11.09
2023-04-24T12:27:28.172Z,11.44
2023-04-24T12:28:38.814Z,11.17
2023-04-24T12:29:54.935Z,10.91
2023-04-24T12:30:59.462Z,10.87
2023-04-24T12:32:02.111Z,10.85
2023-04-24T12:33:07.174Z,10.48
2023-04-24T12:34:18.450Z,10.37
2023-04-24T12:35:23.752Z,10.29
2023-04-24T12:36:29.030Z,10.11
2023-04-24T12:37:37.654Z,10.06
2023-04-24T12:38:45.678Z,9.74
2023-04-24T12:40:04.976Z,9.54
2023-04-24T12:41:10.587Z,9.58
2023-04-24T12:42:18.038Z,9.43
2023-04-24T12:43:23.140Z,9.20
2023-04-24T12:44:32.276Z,9.02
2023-04-24T12:45:36.754Z,8.92
2023-04-24T12:46:38.626Z,8.88
2023-04-24T12:47:43.740Z,9.08
2023-04-24T12:48:45.901Z,9.09
2023-04-24T12:49:52.151Z,9.29
2023-04-24T12:51:20.669Z,9.39
2023-04-24T12:52:22.980Z,9.67
2023-04-24T12:55:13.894Z,10.28
2023-04-24T12:56:15.814Z,10.40
2023-04-24T12:57:22.848Z,10.55
2023-04-24T12:58:27.585Z,10.90
2023-04-24T12:59:29.823Z,11.13
2023-04-24T13:00:34.327Z,10.83
2023-04-24T13:01:36.513Z,10.56
2023-04-24T13:02:41.136Z,10.63
2023-04-24T13:03:46.398Z,10.07
2023-04-24T13:04:48.602Z,10.25
2023-04-24T13:05:53.115Z,10.42
2023-04-24T13:06:54.953Z,10.42
2023-04-24T13:07:59.526Z,10.34
2023-04-24T13:09:01.412Z,10.46
2023-04-24T13:10:05.894Z,10.48
2023-04-24T13:11:07.735Z,10.47
2023-04-24T13:12:12.259Z,10.21
2023-04-24T13:13:19.272Z,10.14
2023-04-24T13:14:21.167Z,10.28
2023-04-24T13:15:25.914Z,10.40
2023-04-24T13:16:27.848Z,10.12
2023-04-24T13:17:32.399Z,10.17
2023-04-24T13:18:37.165Z,10.26
2023-04-24T13:19:39.511Z,10.13
2023-04-24T13:20:45.230Z,9.94
2023-04-24T13:21:47.263Z,10.10
2023-04-24T13:22:51.667Z,9.95
2023-04-24T13:23:56.158Z,9.72
2023-04-24T13:24:58.485Z,9.17
2023-04-24T13:26:03.419Z,9.27
2023-04-24T13:27:05.291Z,9.48
2023-04-24T13:28:09.818Z,9.52
2023-04-24T13:29:14.359Z,9.53
2023-04-24T13:30:18.895Z,9.66
2023-04-24T13:31:20.857Z,9.86
2023-04-24T13:32:25.348Z,10.17
2023-04-24T13:33:29.800Z,10.41
2023-04-24T13:34:31.704Z,10.65
2023-04-24T13:35:36.215Z,10.87
2023-04-24T13:36:38.192Z,10.76
2023-04-24T13:37:42.653Z,10.66
2023-04-24T13:38:47.446Z,10.77
2023-04-24T13:39:49.435Z,11.00
2023-04-24T13:40:53.927Z,10.97
2023-04-24T13:41:56.174Z,11.14
2023-04-24T13:43:00.595Z,11.06
2023-04-24T13:44:02.456Z,10.83
2023-04-24T13:45:23.892Z,10.54
2023-04-24T13:46:26.957Z,10.40
2023-04-24T13:47:31.678Z,10.48
2023-04-24T13:48:33.659Z,10.07
2023-04-24T13:49:38.153Z,9.80
2023-04-24T13:50:42.612Z,9.37
2023-04-24T13:51:47.542Z,9.23
2023-04-24T13:52:49.427Z,8.99
2023-04-24T13:55:12.172Z,7.89
2023-04-24T13:56:15.295Z,7.60
2023-04-24T13:57:20.219Z,7.48
2023-04-24T13:58:22.036Z,7.37
2023-04-24T13:59:26.509Z,7.46
2023-04-24T14:00:33.977Z,7.52
2023-04-24T14:01:35.946Z,7.68
2023-04-24T14:02:40.740Z,7.68
2023-04-24T14:03:43.104Z,7.71
2023-04-24T14:04:49.608Z,7.83
2023-04-24T14:05:51.768Z,8.04
2023-04-24T14:06:56.243Z,8.18
2023-04-24T14:07:58.091Z,8.47
2023-04-24T14:09:02.503Z,8.76
2023-04-24T14:10:07.314Z,9.09
2023-04-24T14:11:09.195Z,9.45
2023-04-24T14:12:13.938Z,9.56
2023-04-24T14:13:16.016Z,9.64
2023-04-24T14:14:20.472Z,9.57
2023-04-24T14:15:22.408Z,9.75
2023-04-24T14:16:29.640Z,9.73
2023-04-24T14:17:32.025Z,9.97
2023-04-24T14:18:37.501Z,9.98
2023-04-24T14:19:41.891Z,9.75
2023-04-24T14:20:43.854Z,9.71
2023-04-24T14:21:48.281Z,9.74
2023-04-24T14:22:52.757Z,9.68
2023-04-24T14:23:54.583Z,9.85
2023-04-24T14:24:59.097Z,9.88
2023-04-24T14:26:01.410Z,9.76